sensor_id;sensor_type;location;lat;lon;timestamp;temperature;humidity
75442;DHT22;64019;48.312;14.226;2024-02-04T00:02:08;7.30;99.90
75442;DHT22;64019;48.312;14.226;2024-02-04T00:04:39;7.20;99.90
75442;DHT22;64019;48.312;14.226;2024-02-04T00:07:06;7.10;99.90
75442;DHT22;64019;48.312;14.226;2024-02-04T00:09:31;7.10;99.90
75442;DHT22;64019;48.312;14.226;2024-02-04T00:11:57;7.10;99.90
75442;DHT22;64019;48.312;14.226;2024-02-04T00:14:24;7.00;99.90
75442;DHT22;64019;48.312;14.226;2024-02-04T00:16:49;7.00;99.90
75442;DHT22;64019;48.312;14.226;2024-02-04T00:19:15;7.00;99.90
75442;DHT22;64019;48.312;14.226;2024-02-04T00:21:41;7.00;99.90
75442;DHT22;64019;48.312;14.226;2024-02-04T00:24:07;6.90;99.90
75442;DHT22;64019;48.312;14.226;2024-02-04T00:26:32;6.90;99.90
75442;DHT22;64019;48.312;14.226;2024-02-04T00:28:58;6.90;99.90
75442;DHT22;64019;48.312;14.226;2024-02-04T00:31:24;6.90;99.90
75442;DHT22;64019;48.312;14.226;2024-02-04T00:33:50;6.90;99.90
75442;DHT22;64019;48.312;14.226;2024-02-04T00:36:15;6.90;99.90
75442;DHT22;64019;48.312;14.226;2024-02-04T00:38:42;6.80;99.90
75442;DHT22;64019;48.312;14.226;2024-02-04T00:41:10;6.80;99.90
75442;DHT22;64019;48.312;14.226;2024-02-04T00:43:35;6.80;99.90
75442;DHT22;64019;48.312;14.226;2024-02-04T00:46:01;6.80;99.90
75442;DHT22;64019;48.312;14.226;2024-02-04T00:48:28;6.70;99.90
75442;DHT22;64019;48.312;14.226;2024-02-04T00:50:54;6.70;99.90
75442;DHT22;64019;48.312;14.226;2024-02-04T00:53:20;6.70;99.90
75442;DHT22;64019;48.312;14.226;2024-02-04T00:55:46;6.70;99.90
75442;DHT22;64019;48.312;14.226;2024-02-04T00:58:12;6.70;99.90
75442;DHT22;64019;48.312;14.226;2024-02-04T01:00:37;6.70;99.90
75442;DHT22;64019;48.312;14.226;2024-02-04T01:03:03;6.70;99.90
75442;DHT22;64019;48.312;14.226;2024-02-04T01:05:29;6.70;99.90
75442;DHT22;64019;48.312;14.226;2024-02-04T01:07:54;6.70;99.90
75442;DHT22;64019;48.312;14.226;2024-02-04T01:10:20;6.70;99.90
75442;DHT22;64019;48.312;14.226;2024-02-04T01:12:46;6.70;99.90
75442;DHT22;64019;48.312;14.226;2024-02-04T01:15:13;6.70;99.90
75442;DHT22;64019;48.312;14.226;2024-02-04T01:17:38;6.70;99.90
75442;DHT22;64019;48.312;14.226;2024-02-04T01:20:06;6.60;99.90
75442;DHT22;64019;48.312;14.226;2024-02-04T01:22:32;6.60;99.90
75442;DHT22;64019;48.312;14.226;2024-02-04T01:24:57;6.60;99.90
75442;DHT22;64019;48.312;14.226;2024-02-04T01:27:23;6.70;99.90
75442;DHT22;64019;48.312;14.226;2024-02-04T01:29:49;6.70;99.90
75442;DHT22;64019;48.312;14.226;2024-02-04T01:32:15;6.70;99.90
75442;DHT22;64019;48.312;14.226;2024-02-04T01:34:41;6.70;99.90
75442;DHT22;64019;48.312;14.226;2024-02-04T01:37:07;6.70;99.90
75442;DHT22;64019;48.312;14.226;2024-02-04T01:39:32;6.70;99.90
75442;DHT22;64019;48.312;14.226;2024-02-04T01:41:59;6.70;99.90
75442;DHT22;64019;48.312;14.226;2024-02-04T01:44:26;6.70;99.90
75442;DHT22;64019;48.312;14.226;2024-02-04T01:46:53;6.70;99.90
75442;DHT22;64019;48.312;14.226;2024-02-04T01:49:20;6.70;99.90
75442;DHT22;64019;48.312;14.226;2024-02-04T01:51:45;6.70;99.90
75442;DHT22;64019;48.312;14.226;2024-02-04T01:54:11;6.70;99.90
75442;DHT22;64019;48.312;14.226;2024-02-04T01:56:37;6.70;99.90
75442;DHT22;64019;48.312;14.226;2024-02-04T01:59:03;6.70;99.90
75442;DHT22;64019;48.312;14.226;2024-02-04T02:01:29;6.70;99.90
75442;DHT22;64019;48.312;14.226;2024-02-04T02:03:55;6.70;99.90
75442;DHT22;64019;48.312;14.226;2024-02-04T02:06:22;6.70;99.90
75442;DHT22;64019;48.312;14.226;2024-02-04T02:08:49;6.70;99.90
75442;DHT22;64019;48.312;14.226;2024-02-04T02:11:23;6.70;99.90
75442;DHT22;64019;48.312;14.226;2024-02-04T02:13:57;6.70;99.90
75442;DHT22;64019;48.312;14.226;2024-02-04T02:16:32;6.70;99.90
75442;DHT22;64019;48.312;14.226;2024-02-04T02:19:50;6.70;99.90
75442;DHT22;64019;48.312;14.226;2024-02-04T02:22:15;6.70;99.90
75442;DHT22;64019;48.312;14.226;2024-02-04T02:24:42;6.70;99.90
75442;DHT22;64019;48.312;14.226;2024-02-04T02:27:09;6.70;99.90
75442;DHT22;64019;48.312;14.226;2024-02-04T02:29:35;6.70;99.90
75442;DHT22;64019;48.312;14.226;2024-02-04T02:32:01;6.70;99.90
75442;DHT22;64019;48.312;14.226;2024-02-04T02:34:29;6.70;99.90
75442;DHT22;64019;48.312;14.226;2024-02-04T02:37:27;6.70;99.90
75442;DHT22;64019;48.312;14.226;2024-02-04T02:42:32;6.70;99.90
75442;DHT22;64019;48.312;14.226;2024-02-04T02:44:59;6.70;99.90
75442;DHT22;64019;48.312;14.226;2024-02-04T02:47:26;6.70;99.90
75442;DHT22;64019;48.312;14.226;2024-02-04T02:49:54;6.70;99.90
75442;DHT22;64019;48.312;14.226;2024-02-04T02:52:21;6.70;99.90
75442;DHT22;64019;48.312;14.226;2024-02-04T02:54:47;6.70;99.90
75442;DHT22;64019;48.312;14.226;2024-02-04T02:57:12;6.70;99.90
75442;DHT22;64019;48.312;14.226;2024-02-04T02:59:38;6.70;99.90
75442;DHT22;64019;48.312;14.226;2024-02-04T03:02:04;6.70;99.90
75442;DHT22;64019;48.312;14.226;2024-02-04T03:04:30;6.70;99.90
75442;DHT22;64019;48.312;14.226;2024-02-04T03:06:55;6.70;99.90
75442;DHT22;64019;48.312;14.226;2024-02-04T03:09:21;6.70;99.90
75442;DHT22;64019;48.312;14.226;2024-02-04T03:11:48;6.70;99.90
75442;DHT22;64019;48.312;14.226;2024-02-04T03:14:18;6.70;99.90
75442;DHT22;64019;48.312;14.226;2024-02-04T03:16:46;6.70;99.90
75442;DHT22;64019;48.312;14.226;2024-02-04T03:19:12;6.70;99.90
75442;DHT22;64019;48.312;14.226;2024-02-04T03:21:38;6.80;99.90
75442;DHT22;64019;48.312;14.226;2024-02-04T03:24:04;6.80;99.90
75442;DHT22;64019;48.312;14.226;2024-02-04T03:26:29;6.80;99.90
75442;DHT22;64019;48.312;14.226;2024-02-04T03:28:55;6.80;99.90
75442;DHT22;64019;48.312;14.226;2024-02-04T03:31:24;6.80;99.90
75442;DHT22;64019;48.312;14.226;2024-02-04T03:33:50;6.80;99.90
75442;DHT22;64019;48.312;14.226;2024-02-04T03:36:19;6.80;99.90
75442;DHT22;64019;48.312;14.226;2024-02-04T03:38:45;6.80;99.90
75442;DHT22;64019;48.312;14.226;2024-02-04T03:41:11;6.80;99.90
75442;DHT22;64019;48.312;14.226;2024-02-04T03:43:37;6.80;99.90
75442;DHT22;64019;48.312;14.226;2024-02-04T03:46:03;6.90;99.90
75442;DHT22;64019;48.312;14.226;2024-02-04T03:48:29;6.90;99.90
75442;DHT22;64019;48.312;14.226;2024-02-04T03:50:54;6.80;99.90
75442;DHT22;64019;48.312;14.226;2024-02-04T03:53:21;6.80;99.90
75442;DHT22;64019;48.312;14.226;2024-02-04T03:55:49;6.80;99.90
75442;DHT22;64019;48.312;14.226;2024-02-04T03:58:15;6.80;99.90
75442;DHT22;64019;48.312;14.226;2024-02-04T04:00:41;6.80;99.90
75442;DHT22;64019;48.312;14.226;2024-02-04T04:03:06;6.80;99.90
75442;DHT22;64019;48.312;14.226;2024-02-04T04:05:32;6.80;99.90
75442;DHT22;64019;48.312;14.226;2024-02-04T04:07:58;6.80;99.90
75442;DHT22;64019;48.312;14.226;2024-02-04T04:10:24;6.80;99.90
75442;DHT22;64019;48.312;14.226;2024-02-04T04:12:50;6.80;99.90
75442;DHT22;64019;48.312;14.226;2024-02-04T04:15:15;6.70;99.90
75442;DHT22;64019;48.312;14.226;2024-02-04T04:17:41;6.80;99.90
75442;DHT22;64019;48.312;14.226;2024-02-04T04:20:08;6.70;99.90
75442;DHT22;64019;48.312;14.226;2024-02-04T04:22:33;6.70;99.90
75442;DHT22;64019;48.312;14.226;2024-02-04T04:24:59;6.70;99.90
75442;DHT22;64019;48.312;14.226;2024-02-04T04:27:25;6.70;99.90
75442;DHT22;64019;48.312;14.226;2024-02-04T04:29:50;6.70;99.90
75442;DHT22;64019;48.312;14.226;2024-02-04T04:32:16;6.70;99.90
75442;DHT22;64019;48.312;14.226;2024-02-04T04:34:43;6.70;99.90
75442;DHT22;64019;48.312;14.226;2024-02-04T04:37:09;6.80;99.90
75442;DHT22;64019;48.312;14.226;2024-02-04T04:39:35;6.80;99.90
75442;DHT22;64019;48.312;14.226;2024-02-04T04:42:00;6.80;99.90
75442;DHT22;64019;48.312;14.226;2024-02-04T04:44:26;6.80;99.90
75442;DHT22;64019;48.312;14.226;2024-02-04T04:46:53;6.70;99.90
75442;DHT22;64019;48.312;14.226;2024-02-04T04:49:18;6.70;99.90
75442;DHT22;64019;48.312;14.226;2024-02-04T04:51:45;6.80;99.90
75442;DHT22;64019;48.312;14.226;2024-02-04T04:54:13;6.80;99.90
75442;DHT22;64019;48.312;14.226;2024-02-04T04:56:40;6.80;99.90
75442;DHT22;64019;48.312;14.226;2024-02-04T04:59:07;6.80;99.90
75442;DHT22;64019;48.312;14.226;2024-02-04T05:01:33;6.80;99.90
75442;DHT22;64019;48.312;14.226;2024-02-04T05:04:00;6.70;99.90
75442;DHT22;64019;48.312;14.226;2024-02-04T05:06:26;6.80;99.90
75442;DHT22;64019;48.312;14.226;2024-02-04T05:08:52;6.80;99.90
75442;DHT22;64019;48.312;14.226;2024-02-04T05:11:17;6.70;99.90
75442;DHT22;64019;48.312;14.226;2024-02-04T05:13:44;6.80;99.90
75442;DHT22;64019;48.312;14.226;2024-02-04T05:16:11;6.80;99.90
75442;DHT22;64019;48.312;14.226;2024-02-04T05:18:36;6.80;99.90
75442;DHT22;64019;48.312;14.226;2024-02-04T05:21:02;6.80;99.90
75442;DHT22;64019;48.312;14.226;2024-02-04T05:23:30;6.80;99.90
75442;DHT22;64019;48.312;14.226;2024-02-04T05:25:56;6.80;99.90
75442;DHT22;64019;48.312;14.226;2024-02-04T05:28:22;6.80;99.90
75442;DHT22;64019;48.312;14.226;2024-02-04T05:30:48;6.80;99.90
75442;DHT22;64019;48.312;14.226;2024-02-04T05:33:14;6.80;99.90
75442;DHT22;64019;48.312;14.226;2024-02-04T05:35:44;6.90;99.90
75442;DHT22;64019;48.312;14.226;2024-02-04T05:38:10;6.90;99.90
75442;DHT22;64019;48.312;14.226;2024-02-04T05:40:35;6.90;99.90
75442;DHT22;64019;48.312;14.226;2024-02-04T05:43:01;6.80;99.90
75442;DHT22;64019;48.312;14.226;2024-02-04T05:45:35;6.80;99.90
75442;DHT22;64019;48.312;14.226;2024-02-04T05:48:00;6.90;99.90
75442;DHT22;64019;48.312;14.226;2024-02-04T05:50:26;6.80;99.90
75442;DHT22;64019;48.312;14.226;2024-02-04T05:52:52;6.90;99.90
75442;DHT22;64019;48.312;14.226;2024-02-04T05:55:19;6.80;99.90
75442;DHT22;64019;48.312;14.226;2024-02-04T05:57:45;6.90;99.90
75442;DHT22;64019;48.312;14.226;2024-02-04T06:00:12;6.90;99.90
75442;DHT22;64019;48.312;14.226;2024-02-04T06:02:37;6.80;99.90
75442;DHT22;64019;48.312;14.226;2024-02-04T06:05:06;6.80;99.90
75442;DHT22;64019;48.312;14.226;2024-02-04T06:07:32;6.80;99.90
75442;DHT22;64019;48.312;14.226;2024-02-04T06:09:59;6.80;99.90
75442;DHT22;64019;48.312;14.226;2024-02-04T06:12:26;6.80;99.90
75442;DHT22;64019;48.312;14.226;2024-02-04T06:14:52;6.80;99.90
75442;DHT22;64019;48.312;14.226;2024-02-04T06:17:18;6.80;99.90
75442;DHT22;64019;48.312;14.226;2024-02-04T06:19:44;6.80;99.90
75442;DHT22;64019;48.312;14.226;2024-02-04T06:22:09;6.80;99.90
75442;DHT22;64019;48.312;14.226;2024-02-04T06:24:36;6.80;99.90
75442;DHT22;64019;48.312;14.226;2024-02-04T06:27:03;6.80;99.90
75442;DHT22;64019;48.312;14.226;2024-02-04T06:29:32;6.80;99.90
75442;DHT22;64019;48.312;14.226;2024-02-04T06:31:58;6.80;99.90
75442;DHT22;64019;48.312;14.226;2024-02-04T06:34:23;6.80;99.90
75442;DHT22;64019;48.312;14.226;2024-02-04T06:36:50;6.80;99.90
75442;DHT22;64019;48.312;14.226;2024-02-04T06:39:16;6.90;99.90
75442;DHT22;64019;48.312;14.226;2024-02-04T06:41:42;6.80;99.90
75442;DHT22;64019;48.312;14.226;2024-02-04T06:44:08;6.80;99.90
75442;DHT22;64019;48.312;14.226;2024-02-04T06:46:34;6.80;99.90
75442;DHT22;64019;48.312;14.226;2024-02-04T06:48:59;6.80;99.90
75442;DHT22;64019;48.312;14.226;2024-02-04T06:51:26;6.90;99.90
75442;DHT22;64019;48.312;14.226;2024-02-04T06:53:52;6.90;99.90
75442;DHT22;64019;48.312;14.226;2024-02-04T06:56:18;6.80;99.90
75442;DHT22;64019;48.312;14.226;2024-02-04T06:58:43;6.90;99.90
75442;DHT22;64019;48.312;14.226;2024-02-04T07:01:11;6.80;99.90
75442;DHT22;64019;48.312;14.226;2024-02-04T07:03:37;6.90;99.90
75442;DHT22;64019;48.312;14.226;2024-02-04T07:06:04;6.90;99.90
75442;DHT22;64019;48.312;14.226;2024-02-04T07:08:29;6.90;99.90
75442;DHT22;64019;48.312;14.226;2024-02-04T07:10:55;6.90;99.90
75442;DHT22;64019;48.312;14.226;2024-02-04T07:13:21;6.80;99.90
75442;DHT22;64019;48.312;14.226;2024-02-04T07:15:48;6.80;99.90
75442;DHT22;64019;48.312;14.226;2024-02-04T07:18:13;6.80;99.90
75442;DHT22;64019;48.312;14.226;2024-02-04T07:20:39;6.80;99.90
75442;DHT22;64019;48.312;14.226;2024-02-04T07:23:05;6.90;99.90
75442;DHT22;64019;48.312;14.226;2024-02-04T07:25:31;6.90;99.90
75442;DHT22;64019;48.312;14.226;2024-02-04T07:27:57;6.90;99.90
75442;DHT22;64019;48.312;14.226;2024-02-04T07:30:24;6.90;99.90
75442;DHT22;64019;48.312;14.226;2024-02-04T07:32:49;6.90;99.90
75442;DHT22;64019;48.312;14.226;2024-02-04T07:35:16;6.90;99.90
75442;DHT22;64019;48.312;14.226;2024-02-04T07:37:42;6.90;99.90
75442;DHT22;64019;48.312;14.226;2024-02-04T07:40:08;6.90;99.90
75442;DHT22;64019;48.312;14.226;2024-02-04T07:42:35;6.90;99.90
75442;DHT22;64019;48.312;14.226;2024-02-04T07:45:02;6.90;99.90
75442;DHT22;64019;48.312;14.226;2024-02-04T07:47:35;6.90;99.90
75442;DHT22;64019;48.312;14.226;2024-02-04T07:50:01;6.90;99.90
75442;DHT22;64019;48.312;14.226;2024-02-04T07:52:27;6.90;99.90
75442;DHT22;64019;48.312;14.226;2024-02-04T07:54:53;6.90;99.90
75442;DHT22;64019;48.312;14.226;2024-02-04T07:57:18;6.90;99.90
75442;DHT22;64019;48.312;14.226;2024-02-04T07:59:44;7.00;99.90
75442;DHT22;64019;48.312;14.226;2024-02-04T08:02:10;7.00;99.90
75442;DHT22;64019;48.312;14.226;2024-02-04T08:04:36;7.00;99.90
75442;DHT22;64019;48.312;14.226;2024-02-04T08:07:05;7.00;99.90
75442;DHT22;64019;48.312;14.226;2024-02-04T08:09:32;7.00;99.90
75442;DHT22;64019;48.312;14.226;2024-02-04T08:11:57;7.00;99.90
75442;DHT22;64019;48.312;14.226;2024-02-04T08:14:23;7.00;99.90
75442;DHT22;64019;48.312;14.226;2024-02-04T08:16:49;7.00;99.90
75442;DHT22;64019;48.312;14.226;2024-02-04T08:19:14;7.00;99.90
75442;DHT22;64019;48.312;14.226;2024-02-04T08:21:40;7.00;99.90
75442;DHT22;64019;48.312;14.226;2024-02-04T08:24:07;7.10;99.90
75442;DHT22;64019;48.312;14.226;2024-02-04T08:26:33;7.10;99.90
75442;DHT22;64019;48.312;14.226;2024-02-04T08:29:00;7.00;99.90
75442;DHT22;64019;48.312;14.226;2024-02-04T08:31:27;7.00;99.90
75442;DHT22;64019;48.312;14.226;2024-02-04T08:33:52;7.00;99.90
75442;DHT22;64019;48.312;14.226;2024-02-04T08:36:20;7.00;99.90
75442;DHT22;64019;48.312;14.226;2024-02-04T08:38:45;7.00;99.90
75442;DHT22;64019;48.312;14.226;2024-02-04T08:41:12;7.00;99.90
75442;DHT22;64019;48.312;14.226;2024-02-04T08:43:40;6.90;99.90
75442;DHT22;64019;48.312;14.226;2024-02-04T08:46:06;6.90;99.90
75442;DHT22;64019;48.312;14.226;2024-02-04T08:48:32;6.90;99.90
75442;DHT22;64019;48.312;14.226;2024-02-04T08:50:58;6.90;99.90
75442;DHT22;64019;48.312;14.226;2024-02-04T08:53:25;6.90;99.90
75442;DHT22;64019;48.312;14.226;2024-02-04T08:55:51;6.90;99.90
75442;DHT22;64019;48.312;14.226;2024-02-04T08:58:17;6.90;99.90
75442;DHT22;64019;48.312;14.226;2024-02-04T09:00:42;7.00;99.90
75442;DHT22;64019;48.312;14.226;2024-02-04T09:03:08;6.90;99.90
75442;DHT22;64019;48.312;14.226;2024-02-04T09:05:34;6.90;99.90
75442;DHT22;64019;48.312;14.226;2024-02-04T09:08:00;7.00;99.90
75442;DHT22;64019;48.312;14.226;2024-02-04T09:10:27;7.00;99.90
75442;DHT22;64019;48.312;14.226;2024-02-04T09:12:52;7.00;99.90
75442;DHT22;64019;48.312;14.226;2024-02-04T09:15:18;7.00;99.90
75442;DHT22;64019;48.312;14.226;2024-02-04T09:17:44;7.00;99.90
75442;DHT22;64019;48.312;14.226;2024-02-04T09:20:16;7.00;99.90
75442;DHT22;64019;48.312;14.226;2024-02-04T09:22:44;7.00;99.90
75442;DHT22;64019;48.312;14.226;2024-02-04T09:25:09;7.00;99.90
75442;DHT22;64019;48.312;14.226;2024-02-04T09:27:35;7.00;99.90
75442;DHT22;64019;48.312;14.226;2024-02-04T09:30:02;7.00;99.90
75442;DHT22;64019;48.312;14.226;2024-02-04T09:32:28;7.00;99.90
75442;DHT22;64019;48.312;14.226;2024-02-04T09:34:53;7.10;99.90
75442;DHT22;64019;48.312;14.226;2024-02-04T09:37:19;7.10;99.90
75442;DHT22;64019;48.312;14.226;2024-02-04T09:39:45;7.00;99.90
75442;DHT22;64019;48.312;14.226;2024-02-04T09:42:19;7.10;99.90
75442;DHT22;64019;48.312;14.226;2024-02-04T09:44:47;7.10;99.90
75442;DHT22;64019;48.312;14.226;2024-02-04T09:47:17;7.10;99.90
75442;DHT22;64019;48.312;14.226;2024-02-04T09:49:43;7.10;99.90
75442;DHT22;64019;48.312;14.226;2024-02-04T09:52:09;7.20;99.90
75442;DHT22;64019;48.312;14.226;2024-02-04T09:54:45;7.20;99.90
75442;DHT22;64019;48.312;14.226;2024-02-04T09:57:13;7.20;99.90
75442;DHT22;64019;48.312;14.226;2024-02-04T09:59:40;7.30;99.90
75442;DHT22;64019;48.312;14.226;2024-02-04T10:02:07;7.30;99.90
75442;DHT22;64019;48.312;14.226;2024-02-04T10:04:33;7.30;99.90
75442;DHT22;64019;48.312;14.226;2024-02-04T10:07:00;7.30;99.90
75442;DHT22;64019;48.312;14.226;2024-02-04T10:09:26;7.30;99.90
75442;DHT22;64019;48.312;14.226;2024-02-04T10:11:52;7.30;99.90
75442;DHT22;64019;48.312;14.226;2024-02-04T10:14:17;7.40;99.90
75442;DHT22;64019;48.312;14.226;2024-02-04T10:16:45;7.40;99.90
75442;DHT22;64019;48.312;14.226;2024-02-04T10:19:11;7.40;99.90
75442;DHT22;64019;48.312;14.226;2024-02-04T10:21:37;7.40;99.90
75442;DHT22;64019;48.312;14.226;2024-02-04T10:24:03;7.40;99.90
75442;DHT22;64019;48.312;14.226;2024-02-04T10:26:29;7.40;99.90
75442;DHT22;64019;48.312;14.226;2024-02-04T10:29:00;7.40;99.90
75442;DHT22;64019;48.312;14.226;2024-02-04T10:31:26;7.40;99.90
75442;DHT22;64019;48.312;14.226;2024-02-04T10:33:52;7.40;99.90
75442;DHT22;64019;48.312;14.226;2024-02-04T10:36:18;7.40;99.90
75442;DHT22;64019;48.312;14.226;2024-02-04T10:38:44;7.40;99.90
75442;DHT22;64019;48.312;14.226;2024-02-04T10:41:15;7.50;99.90
75442;DHT22;64019;48.312;14.226;2024-02-04T10:43:42;7.50;99.90
75442;DHT22;64019;48.312;14.226;2024-02-04T10:46:18;7.50;99.90
75442;DHT22;64019;48.312;14.226;2024-02-04T10:48:48;7.50;99.90
75442;DHT22;64019;48.312;14.226;2024-02-04T10:51:17;7.50;99.90
75442;DHT22;64019;48.312;14.226;2024-02-04T10:53:45;7.60;99.90
75442;DHT22;64019;48.312;14.226;2024-02-04T10:56:19;7.60;99.90
75442;DHT22;64019;48.312;14.226;2024-02-04T10:58:47;7.60;99.90
75442;DHT22;64019;48.312;14.226;2024-02-04T11:01:14;7.70;99.90
75442;DHT22;64019;48.312;14.226;2024-02-04T11:03:40;7.70;99.90
75442;DHT22;64019;48.312;14.226;2024-02-04T11:06:08;7.70;99.90
75442;DHT22;64019;48.312;14.226;2024-02-04T11:08:35;7.80;99.90
75442;DHT22;64019;48.312;14.226;2024-02-04T11:11:01;7.80;99.90
75442;DHT22;64019;48.312;14.226;2024-02-04T11:13:33;7.90;99.90
75442;DHT22;64019;48.312;14.226;2024-02-04T11:16:03;7.90;99.90
75442;DHT22;64019;48.312;14.226;2024-02-04T11:18:42;7.90;99.90
75442;DHT22;64019;48.312;14.226;2024-02-04T11:24:12;7.90;99.90
75442;DHT22;64019;48.312;14.226;2024-02-04T11:26:42;8.00;99.90
75442;DHT22;64019;48.312;14.226;2024-02-04T11:29:10;8.00;99.90
75442;DHT22;64019;48.312;14.226;2024-02-04T11:31:38;8.00;99.90
75442;DHT22;64019;48.312;14.226;2024-02-04T11:34:05;8.10;99.90
75442;DHT22;64019;48.312;14.226;2024-02-04T11:36:40;8.00;99.90
75442;DHT22;64019;48.312;14.226;2024-02-04T11:39:13;8.00;99.90
75442;DHT22;64019;48.312;14.226;2024-02-04T11:41:47;8.00;99.90
75442;DHT22;64019;48.312;14.226;2024-02-04T11:44:22;8.10;99.90
75442;DHT22;64019;48.312;14.226;2024-02-04T11:46:49;8.10;99.90
75442;DHT22;64019;48.312;14.226;2024-02-04T11:49:16;8.10;99.90
75442;DHT22;64019;48.312;14.226;2024-02-04T11:51:50;8.20;99.90
75442;DHT22;64019;48.312;14.226;2024-02-04T11:54:20;8.20;99.90
75442;DHT22;64019;48.312;14.226;2024-02-04T11:56:47;8.20;99.90
75442;DHT22;64019;48.312;14.226;2024-02-04T11:59:22;8.30;99.90
75442;DHT22;64019;48.312;14.226;2024-02-04T12:01:54;8.30;99.90
75442;DHT22;64019;48.312;14.226;2024-02-04T12:04:20;8.40;99.90
75442;DHT22;64019;48.312;14.226;2024-02-04T12:06:47;8.50;99.90
75442;DHT22;64019;48.312;14.226;2024-02-04T12:09:16;8.50;99.90
75442;DHT22;64019;48.312;14.226;2024-02-04T12:11:44;8.50;99.90
75442;DHT22;64019;48.312;14.226;2024-02-04T12:14:10;8.50;99.90
75442;DHT22;64019;48.312;14.226;2024-02-04T12:16:36;8.60;99.90
75442;DHT22;64019;48.312;14.226;2024-02-04T12:19:02;8.60;99.90
75442;DHT22;64019;48.312;14.226;2024-02-04T12:21:32;8.60;99.90
75442;DHT22;64019;48.312;14.226;2024-02-04T12:23:59;8.60;99.90
75442;DHT22;64019;48.312;14.226;2024-02-04T12:26:25;8.60;99.90
75442;DHT22;64019;48.312;14.226;2024-02-04T12:28:51;8.60;99.90
75442;DHT22;64019;48.312;14.226;2024-02-04T12:31:18;8.60;99.90
75442;DHT22;64019;48.312;14.226;2024-02-04T12:33:52;8.60;99.90
75442;DHT22;64019;48.312;14.226;2024-02-04T12:36:19;8.70;99.90
75442;DHT22;64019;48.312;14.226;2024-02-04T12:38:55;8.60;99.90
75442;DHT22;64019;48.312;14.226;2024-02-04T12:41:24;8.70;99.90
75442;DHT22;64019;48.312;14.226;2024-02-04T12:43:54;8.70;99.90
75442;DHT22;64019;48.312;14.226;2024-02-04T12:46:21;8.70;99.90
75442;DHT22;64019;48.312;14.226;2024-02-04T12:48:54;8.70;99.90
75442;DHT22;64019;48.312;14.226;2024-02-04T12:51:38;8.80;99.90
75442;DHT22;64019;48.312;14.226;2024-02-04T12:54:08;8.80;99.90
75442;DHT22;64019;48.312;14.226;2024-02-04T12:56:52;8.80;99.90
75442;DHT22;64019;48.312;14.226;2024-02-04T12:59:32;8.90;99.90
75442;DHT22;64019;48.312;14.226;2024-02-04T13:02:07;8.90;99.90
75442;DHT22;64019;48.312;14.226;2024-02-04T13:04:37;8.90;99.90
75442;DHT22;64019;48.312;14.226;2024-02-04T13:07:11;8.90;99.90
75442;DHT22;64019;48.312;14.226;2024-02-04T13:09:40;8.90;99.90
75442;DHT22;64019;48.312;14.226;2024-02-04T13:12:07;8.90;99.90
75442;DHT22;64019;48.312;14.226;2024-02-04T13:14:38;8.90;99.90
75442;DHT22;64019;48.312;14.226;2024-02-04T13:17:04;8.90;99.90
75442;DHT22;64019;48.312;14.226;2024-02-04T13:19:36;9.00;99.90
75442;DHT22;64019;48.312;14.226;2024-02-04T13:22:05;9.00;99.90
75442;DHT22;64019;48.312;14.226;2024-02-04T13:24:32;9.00;99.90
75442;DHT22;64019;48.312;14.226;2024-02-04T13:26:58;9.00;99.90
75442;DHT22;64019;48.312;14.226;2024-02-04T13:29:27;9.00;99.90
75442;DHT22;64019;48.312;14.226;2024-02-04T13:31:54;9.00;99.90
75442;DHT22;64019;48.312;14.226;2024-02-04T13:34:20;9.00;99.90
75442;DHT22;64019;48.312;14.226;2024-02-04T13:36:52;9.10;99.90
75442;DHT22;64019;48.312;14.226;2024-02-04T13:39:18;9.10;99.90
75442;DHT22;64019;48.312;14.226;2024-02-04T13:41:44;9.10;99.90
75442;DHT22;64019;48.312;14.226;2024-02-04T13:44:10;9.10;99.90
75442;DHT22;64019;48.312;14.226;2024-02-04T13:46:36;9.20;99.90
75442;DHT22;64019;48.312;14.226;2024-02-04T13:49:02;9.20;99.90
75442;DHT22;64019;48.312;14.226;2024-02-04T13:51:29;9.20;99.90
75442;DHT22;64019;48.312;14.226;2024-02-04T13:53:55;9.20;99.90
75442;DHT22;64019;48.312;14.226;2024-02-04T13:56:21;9.20;99.90
75442;DHT22;64019;48.312;14.226;2024-02-04T13:58:46;9.20;99.90
75442;DHT22;64019;48.312;14.226;2024-02-04T14:01:14;9.20;99.90
75442;DHT22;64019;48.312;14.226;2024-02-04T14:03:41;9.10;99.90
75442;DHT22;64019;48.312;14.226;2024-02-04T14:06:07;9.10;99.90
75442;DHT22;64019;48.312;14.226;2024-02-04T14:08:33;9.20;99.90
75442;DHT22;64019;48.312;14.226;2024-02-04T14:11:00;9.20;99.90
75442;DHT22;64019;48.312;14.226;2024-02-04T14:13:27;9.20;99.90
75442;DHT22;64019;48.312;14.226;2024-02-04T14:15:53;9.20;99.90
75442;DHT22;64019;48.312;14.226;2024-02-04T14:18:19;9.20;99.90
75442;DHT22;64019;48.312;14.226;2024-02-04T14:20:46;9.20;99.90
75442;DHT22;64019;48.312;14.226;2024-02-04T14:23:12;9.10;99.90
75442;DHT22;64019;48.312;14.226;2024-02-04T14:25:38;9.10;99.90
75442;DHT22;64019;48.312;14.226;2024-02-04T14:28:04;9.10;99.90
75442;DHT22;64019;48.312;14.226;2024-02-04T14:30:31;9.10;99.90
75442;DHT22;64019;48.312;14.226;2024-02-04T14:32:57;9.10;99.90
75442;DHT22;64019;48.312;14.226;2024-02-04T14:35:23;9.10;99.90
75442;DHT22;64019;48.312;14.226;2024-02-04T14:37:48;9.10;99.90
75442;DHT22;64019;48.312;14.226;2024-02-04T14:40:14;9.20;99.90
75442;DHT22;64019;48.312;14.226;2024-02-04T14:42:40;9.20;99.90
75442;DHT22;64019;48.312;14.226;2024-02-04T14:45:06;9.10;99.90
75442;DHT22;64019;48.312;14.226;2024-02-04T14:47:32;9.20;99.90
75442;DHT22;64019;48.312;14.226;2024-02-04T14:49:58;9.20;99.90
75442;DHT22;64019;48.312;14.226;2024-02-04T14:52:23;9.20;99.90
75442;DHT22;64019;48.312;14.226;2024-02-04T14:54:49;9.20;99.90
75442;DHT22;64019;48.312;14.226;2024-02-04T14:57:16;9.20;99.90
75442;DHT22;64019;48.312;14.226;2024-02-04T14:59:42;9.20;99.90
75442;DHT22;64019;48.312;14.226;2024-02-04T15:02:08;9.20;99.90
75442;DHT22;64019;48.312;14.226;2024-02-04T15:04:34;9.20;99.90
75442;DHT22;64019;48.312;14.226;2024-02-04T15:07:02;9.20;99.90
75442;DHT22;64019;48.312;14.226;2024-02-04T15:09:33;9.20;99.90
75442;DHT22;64019;48.312;14.226;2024-02-04T15:11:59;9.20;99.90
75442;DHT22;64019;48.312;14.226;2024-02-04T15:14:26;9.20;99.90
75442;DHT22;64019;48.312;14.226;2024-02-04T15:16:53;9.30;99.90
75442;DHT22;64019;48.312;14.226;2024-02-04T15:19:22;9.30;99.90
75442;DHT22;64019;48.312;14.226;2024-02-04T15:21:49;9.30;99.90
75442;DHT22;64019;48.312;14.226;2024-02-04T15:24:18;9.30;99.90
75442;DHT22;64019;48.312;14.226;2024-02-04T15:26:47;9.30;99.90
75442;DHT22;64019;48.312;14.226;2024-02-04T15:29:14;9.30;99.90
75442;DHT22;64019;48.312;14.226;2024-02-04T15:31:44;9.30;99.90
75442;DHT22;64019;48.312;14.226;2024-02-04T15:34:12;9.20;99.90
75442;DHT22;64019;48.312;14.226;2024-02-04T15:36:38;9.30;99.90